createdAt,value
2022-10-14T00:01:05.907Z,38.00
2022-10-14T00:03:34.078Z,38.38
2022-10-14T00:06:05.416Z,37.93
2022-10-14T00:08:34.680Z,37.95
2022-10-14T00:11:05.930Z,38.16
2022-10-14T00:13:33.843Z,38.07
2022-10-14T00:16:02.049Z,38.23
2022-10-14T00:18:29.970Z,38.12
2022-10-14T00:20:57.914Z,38.04
2022-10-14T00:23:25.922Z,38.18
2022-10-14T00:25:55.629Z,38.22
2022-10-14T00:28:23.602Z,38.01
2022-10-14T00:30:55.625Z,38.21
2022-10-14T00:33:23.598Z,38.23
2022-10-14T00:35:55.955Z,38.11
2022-10-14T00:38:23.858Z,38.11
2022-10-14T00:40:51.815Z,38.10
2022-10-14T00:43:21.228Z,38.17
2022-10-14T00:45:49.392Z,38.05
2022-10-14T00:48:17.429Z,38.25
2022-10-14T00:50:46.273Z,38.19
2022-10-14T00:53:14.256Z,38.11
2022-10-14T00:55:42.648Z,38.29
2022-10-14T00:58:10.586Z,38.09
2022-10-14T01:00:39.903Z,38.18
2022-10-14T01:03:09.498Z,38.04
2022-10-14T01:05:41.837Z,38.22
2022-10-14T01:08:10.862Z,38.30
2022-10-14T01:10:41.406Z,38.29
2022-10-14T01:13:15.655Z,38.27
2022-10-14T01:15:49.057Z,38.17
2022-10-14T01:18:21.303Z,38.35
2022-10-14T01:21:11.028Z,38.40
2022-10-14T01:24:01.167Z,38.19
2022-10-14T01:27:02.160Z,38.27
2022-10-14T01:30:03.499Z,38.00
2022-10-14T01:32:33.464Z,38.28
2022-10-14T01:35:09.762Z,38.42
2022-10-14T01:37:38.281Z,38.34
2022-10-14T01:40:09.709Z,38.24
2022-10-14T01:42:38.336Z,38.13
2022-10-14T01:45:10.213Z,38.27
2022-10-14T01:47:39.461Z,38.31
2022-10-14T01:50:10.134Z,38.09
2022-10-14T01:52:39.569Z,38.36
2022-10-14T01:55:09.546Z,38.40
2022-10-14T01:57:38.158Z,38.53
2022-10-14T02:00:09.875Z,38.05
2022-10-14T02:02:39.196Z,38.48
2022-10-14T02:05:10.202Z,38.53
2022-10-14T02:07:40.026Z,38.02
2022-10-14T02:10:10.923Z,38.55
2022-10-14T02:12:40.399Z,38.23
2022-10-14T02:15:12.834Z,38.47
2022-10-14T02:17:44.716Z,38.38
2022-10-14T02:20:17.156Z,38.18
2022-10-14T02:22:46.504Z,38.43
2022-10-14T02:25:16.696Z,38.46
2022-10-14T02:27:44.585Z,38.42
2022-10-14T02:30:13.365Z,38.37
2022-10-14T02:32:41.565Z,38.28
2022-10-14T02:35:11.885Z,38.40
2022-10-14T02:37:39.861Z,38.40
2022-10-14T02:40:09.949Z,38.25
2022-10-14T02:42:37.889Z,38.54
2022-10-14T02:45:08.750Z,38.38
2022-10-14T02:47:36.682Z,38.33
2022-10-14T02:50:04.915Z,38.38
2022-10-14T02:52:34.880Z,38.41
2022-10-14T02:55:02.721Z,38.52
2022-10-14T02:57:30.569Z,38.33
2022-10-14T02:59:58.439Z,38.24
2022-10-14T03:02:26.273Z,38.74
2022-10-14T03:04:54.148Z,38.19
2022-10-14T03:07:23.296Z,38.23
2022-10-14T03:09:52.942Z,38.17
2022-10-14T03:12:21.134Z,38.43
2022-10-14T03:14:49.144Z,38.62
2022-10-14T03:17:17.293Z,38.42
2022-10-14T03:19:45.212Z,38.58
2022-10-14T03:22:13.062Z,38.26
2022-10-14T03:24:43.634Z,38.59
2022-10-14T03:27:13.178Z,38.30
2022-10-14T03:29:41.270Z,38.34
2022-10-14T03:32:09.167Z,38.42
2022-10-14T03:34:37.047Z,38.50
2022-10-14T03:37:04.982Z,38.50
2022-10-14T03:39:32.834Z,38.36
2022-10-14T03:42:00.715Z,38.62
2022-10-14T03:44:30.011Z,38.51
2022-10-14T03:46:58.232Z,38.52
2022-10-14T03:49:26.364Z,38.55
2022-10-14T03:51:54.235Z,38.39
2022-10-14T03:54:22.084Z,38.43
2022-10-14T03:56:50.923Z,38.38
2022-10-14T03:59:18.801Z,38.43
2022-10-14T04:01:48.051Z,38.34
2022-10-14T04:04:15.982Z,38.61
2022-10-14T04:06:44.172Z,38.42
2022-10-14T04:09:12.070Z,38.58
2022-10-14T04:11:39.946Z,38.24
2022-10-14T04:14:07.814Z,38.55
2022-10-14T04:16:35.985Z,38.55
2022-10-14T04:19:05.298Z,38.65
2022-10-14T04:21:33.175Z,38.63
2022-10-14T04:24:04.822Z,38.41
2022-10-14T04:26:35.698Z,38.43
2022-10-14T04:29:03.691Z,38.44
2022-10-14T04:31:31.713Z,38.20
2022-10-14T04:33:59.641Z,38.76
2022-10-14T04:36:29.210Z,38.43
2022-10-14T04:38:57.064Z,38.47
2022-10-14T04:41:24.969Z,38.61
2022-10-14T04:43:52.877Z,38.57
2022-10-14T04:46:21.021Z,38.50
2022-10-14T04:48:48.914Z,38.40
2022-10-14T04:51:16.818Z,38.43
2022-10-14T04:53:46.049Z,38.72
2022-10-14T04:56:14.246Z,38.47
2022-10-14T04:58:42.140Z,38.67
2022-10-14T05:01:09.979Z,38.40
2022-10-14T05:03:37.933Z,38.44
2022-10-14T05:06:06.333Z,38.69
2022-10-14T05:08:34.161Z,38.53
2022-10-14T05:11:03.421Z,38.60
2022-10-14T05:13:31.355Z,38.47
2022-10-14T05:15:59.535Z,38.43
2022-10-14T05:18:27.432Z,38.55
2022-10-14T05:20:55.360Z,38.42
2022-10-14T05:23:23.208Z,38.87
2022-10-14T05:25:51.816Z,38.47
2022-10-14T05:28:21.140Z,38.47
2022-10-14T05:30:49.085Z,38.57
2022-10-14T05:33:17.153Z,38.70
2022-10-14T05:35:58.769Z,38.58
2022-10-14T05:38:27.282Z,38.44
2022-10-14T05:40:55.325Z,38.77
2022-10-14T05:43:29.503Z,38.77
2022-10-14T05:46:00.123Z,38.47
2022-10-14T05:48:27.974Z,38.67
2022-10-14T05:50:55.855Z,38.62
2022-10-14T05:53:23.838Z,38.48
2022-10-14T05:55:51.927Z,38.49
2022-10-14T05:58:19.745Z,38.78
2022-10-14T06:00:49.019Z,38.61
2022-10-14T06:03:18.172Z,38.67
2022-10-14T06:05:46.669Z,38.90
2022-10-14T06:08:14.561Z,38.64
2022-10-14T06:10:42.441Z,38.98
2022-10-14T06:13:10.342Z,38.49
2022-10-14T06:15:38.514Z,38.73
2022-10-14T06:18:07.834Z,38.55
2022-10-14T06:20:35.750Z,38.72
2022-10-14T06:23:03.793Z,38.67
2022-10-14T06:25:32.007Z,38.52
2022-10-14T06:28:03.366Z,38.75
2022-10-14T06:30:31.190Z,38.72
2022-10-14T06:32:59.031Z,38.69
2022-10-14T06:35:28.673Z,38.60
2022-10-14T06:37:57.033Z,38.84
2022-10-14T06:40:24.924Z,38.72
2022-10-14T06:42:53.679Z,38.70
2022-10-14T06:45:21.532Z,38.64
2022-10-14T06:47:49.419Z,38.67
2022-10-14T06:50:17.408Z,38.69
2022-10-14T06:52:47.676Z,38.72
2022-10-14T06:55:15.565Z,38.44
2022-10-14T06:57:43.446Z,38.53
2022-10-14T07:00:12.089Z,38.76
2022-10-14T07:02:39.930Z,38.71
2022-10-14T07:05:08.447Z,38.64
2022-10-14T07:07:36.377Z,38.65
2022-10-14T07:10:06.062Z,38.60
2022-10-14T07:12:34.319Z,38.63
2022-10-14T07:15:02.158Z,38.71
2022-10-14T07:17:30.298Z,38.69
2022-10-14T07:19:58.371Z,38.67
2022-10-14T07:22:26.232Z,38.71
2022-10-14T07:24:54.141Z,38.78
2022-10-14T07:27:23.880Z,38.52
2022-10-14T07:29:52.268Z,38.70
2022-10-14T07:32:20.151Z,38.53
2022-10-14T07:34:48.105Z,38.70
2022-10-14T07:37:16.268Z,38.59
2022-10-14T07:39:44.273Z,38.65
2022-10-14T07:42:12.494Z,38.66
2022-10-14T07:44:41.791Z,38.71
2022-10-14T07:47:09.934Z,38.89
2022-10-14T07:49:37.950Z,38.65
2022-10-14T07:52:06.077Z,38.60
2022-10-14T07:54:33.930Z,38.69
2022-10-14T07:57:02.133Z,38.94
2022-10-14T07:59:30.015Z,38.82
2022-10-14T08:01:59.488Z,38.37
2022-10-14T08:04:27.413Z,38.87
2022-10-14T08:06:55.547Z,39.09
2022-10-14T08:09:23.479Z,38.69
2022-10-14T08:11:51.442Z,38.74
2022-10-14T08:14:19.300Z,38.74
2022-10-14T08:16:48.035Z,38.70
2022-10-14T08:19:17.456Z,38.70
2022-10-14T08:21:45.319Z,38.69
2022-10-14T08:24:13.225Z,38.93
2022-10-14T08:26:41.990Z,38.86
2022-10-14T08:29:11.661Z,38.68
2022-10-14T08:31:39.550Z,38.87
2022-10-14T08:34:07.467Z,38.76
2022-10-14T08:36:37.008Z,38.83
2022-10-14T08:39:05.623Z,38.62
2022-10-14T08:42:07.966Z,38.66
2022-10-14T08:44:42.731Z,38.87
2022-10-14T08:47:13.071Z,38.72
2022-10-14T08:49:50.199Z,38.61
2022-10-14T08:52:21.067Z,38.67
2022-10-14T08:54:50.228Z,38.94
2022-10-14T08:57:19.851Z,38.87
2022-10-14T08:59:47.736Z,38.68
2022-10-14T09:02:21.165Z,38.92
2022-10-14T09:04:49.403Z,38.65
2022-10-14T09:07:19.864Z,38.85
2022-10-14T09:09:49.950Z,38.71
2022-10-14T09:12:18.603Z,38.77
2022-10-14T09:14:48.203Z,38.89
2022-10-14T09:17:18.790Z,38.85
2022-10-14T09:19:47.969Z,38.41
2022-10-14T09:22:16.117Z,38.84
2022-10-14T09:24:48.347Z,38.74
2022-10-14T09:27:17.442Z,38.64
2022-10-14T09:29:47.564Z,38.70
2022-10-14T09:32:26.749Z,38.74
2022-10-14T09:34:54.875Z,38.87
2022-10-14T09:37:28.541Z,38.60
2022-10-14T09:39:59.500Z,38.61
2022-10-14T09:42:28.867Z,38.68
2022-10-14T09:45:10.642Z,38.64
2022-10-14T09:47:46.328Z,38.88
2022-10-14T09:50:22.126Z,38.78
2022-10-14T09:52:52.338Z,39.04
2022-10-14T09:55:21.885Z,38.86
2022-10-14T09:58:04.445Z,38.95
2022-10-14T10:00:32.964Z,38.80
2022-10-14T10:03:00.837Z,38.79
2022-10-14T10:05:30.381Z,38.79
2022-10-14T10:08:02.949Z,38.88
2022-10-14T10:10:32.268Z,39.05
2022-10-14T10:13:00.179Z,38.86
2022-10-14T10:15:28.446Z,38.79
2022-10-14T10:17:56.340Z,38.67
2022-10-14T10:20:32.014Z,38.81
2022-10-14T10:23:00.219Z,38.81
2022-10-14T10:25:28.551Z,39.19
2022-10-14T10:28:00.278Z,38.79
2022-10-14T10:30:29.604Z,38.80
2022-10-14T10:33:12.383Z,38.80
2022-10-14T10:35:52.051Z,39.03
2022-10-14T10:38:23.114Z,38.69
2022-10-14T10:40:59.796Z,38.79
2022-10-14T10:43:50.861Z,38.93
2022-10-14T10:46:42.813Z,38.88
2022-10-14T10:49:18.230Z,38.84
2022-10-14T10:51:49.195Z,38.75
2022-10-14T10:54:23.403Z,38.86
2022-10-14T10:56:52.621Z,38.84
2022-10-14T10:59:40.199Z,39.03
2022-10-14T11:02:38.139Z,38.65
2022-10-14T11:05:10.828Z,38.94
2022-10-14T11:07:59.842Z,38.88
2022-10-14T11:10:48.559Z,38.92
2022-10-14T11:13:22.455Z,38.65
2022-10-14T11:15:52.460Z,38.79
2022-10-14T11:18:24.042Z,38.83
2022-10-14T11:21:01.739Z,38.69
2022-10-14T11:23:42.624Z,38.94
2022-10-14T11:26:18.521Z,38.92
2022-10-14T11:28:48.151Z,39.05
2022-10-14T11:31:27.260Z,38.92
2022-10-14T11:34:02.398Z,39.08
2022-10-14T11:36:33.025Z,38.86
2022-10-14T11:39:09.753Z,38.75
2022-10-14T11:41:46.063Z,39.10
2022-10-14T11:44:16.181Z,39.16
2022-10-14T11:46:47.997Z,38.82
2022-10-14T11:49:19.493Z,39.14
2022-10-14T11:51:50.053Z,38.79
2022-10-14T11:54:19.790Z,39.08
2022-10-14T11:56:51.017Z,39.05
2022-10-14T12:00:02.820Z,39.10
2022-10-14T12:02:39.312Z,38.94
2022-10-14T12:05:10.269Z,38.83
2022-10-14T12:07:40.578Z,38.79
2022-10-14T12:10:15.240Z,38.88
2022-10-14T12:12:43.215Z,38.99
2022-10-14T12:15:15.792Z,38.85
2022-10-14T12:17:47.159Z,38.78
2022-10-14T12:20:20.867Z,38.79
2022-10-14T12:22:48.981Z,38.83
2022-10-14T12:25:17.959Z,38.81
2022-10-14T12:27:45.849Z,39.05
2022-10-14T12:30:31.914Z,38.93
2022-10-14T12:33:05.143Z,38.88
2022-10-14T12:35:51.821Z,38.88
2022-10-14T12:38:19.996Z,39.13
2022-10-14T12:40:49.339Z,39.20
2022-10-14T12:43:25.030Z,38.87
2022-10-14T12:46:04.451Z,38.80
2022-10-14T12:48:35.579Z,38.82
2022-10-14T12:51:12.193Z,39.05
2022-10-14T12:53:41.654Z,39.00
2022-10-14T12:56:11.388Z,38.85
2022-10-14T12:58:41.945Z,38.92
2022-10-14T13:01:16.901Z,38.89
2022-10-14T13:03:48.549Z,38.87
2022-10-14T13:06:37.001Z,39.00
2022-10-14T13:09:35.833Z,38.80
2022-10-14T13:12:40.951Z,39.02
2022-10-14T13:16:00.903Z,38.92
2022-10-14T13:18:53.450Z,38.63
2022-10-14T13:21:53.623Z,39.09
2022-10-14T13:24:24.799Z,38.91
2022-10-14T13:27:00.251Z,39.00
2022-10-14T13:29:31.594Z,38.94
2022-10-14T13:32:01.942Z,39.09
2022-10-14T13:34:37.678Z,38.87
2022-10-14T13:37:32.504Z,39.29
2022-10-14T13:40:06.562Z,38.87
2022-10-14T13:42:37.205Z,38.65
2022-10-14T13:45:10.128Z,38.98
2022-10-14T13:47:38.028Z,39.09
2022-10-14T13:50:06.408Z,38.92
2022-10-14T13:52:35.873Z,39.20
2022-10-14T13:55:13.379Z,38.85
2022-10-14T13:58:07.812Z,39.30
2022-10-14T14:00:45.354Z,39.09
2022-10-14T14:03:18.251Z,39.07
2022-10-14T14:05:46.174Z,39.10
2022-10-14T14:08:38.560Z,39.16
2022-10-14T14:11:17.148Z,38.87
2022-10-14T14:13:59.982Z,38.75
2022-10-14T14:16:31.456Z,39.12
2022-10-14T14:19:14.610Z,39.13
2022-10-14T14:21:42.508Z,38.97
2022-10-14T14:24:18.022Z,39.08
2022-10-14T14:26:46.010Z,39.24
2022-10-14T14:29:17.282Z,39.09
2022-10-14T14:32:07.657Z,39.18
2022-10-14T14:34:34.324Z,39.08
2022-10-14T14:37:17.527Z,38.98
2022-10-14T14:39:58.525Z,39.10
2022-10-14T14:42:26.672Z,39.12
2022-10-14T14:44:55.845Z,39.18
2022-10-14T14:47:24.239Z,39.14
2022-10-14T14:50:01.574Z,39.08
2022-10-14T14:52:41.636Z,39.49
2022-10-14T14:55:48.386Z,39.39
2022-10-14T14:58:25.735Z,39.07
2022-10-14T15:00:55.049Z,39.24
2022-10-14T15:03:23.651Z,39.39
2022-10-14T15:05:52.941Z,39.15
2022-10-14T15:08:23.334Z,39.32
2022-10-14T15:10:51.264Z,39.37
2022-10-14T15:13:32.689Z,39.39
2022-10-14T15:16:00.592Z,39.19
2022-10-14T15:18:28.829Z,39.47
2022-10-14T15:21:16.227Z,39.20
2022-10-14T15:23:47.066Z,39.41
2022-10-14T15:26:23.188Z,39.72
2022-10-14T15:29:15.220Z,39.15
2022-10-14T15:31:44.218Z,39.37
2022-10-14T15:34:19.179Z,39.48
2022-10-14T15:36:47.076Z,39.17
2022-10-14T15:39:14.951Z,39.16
2022-10-14T15:41:43.398Z,39.23
2022-10-14T15:44:12.738Z,39.21
2022-10-14T15:46:58.660Z,39.22
2022-10-14T15:49:27.986Z,39.12
2022-10-14T15:51:55.893Z,39.25
2022-10-14T15:54:27.393Z,39.37
2022-10-14T15:59:30.354Z,39.03
2022-10-14T16:01:58.867Z,39.15
2022-10-14T16:04:27.976Z,39.01
2022-10-14T16:06:57.597Z,39.22
2022-10-14T16:09:27.610Z,39.34
2022-10-14T16:11:58.157Z,39.54
2022-10-14T16:14:27.325Z,39.55
2022-10-14T16:16:56.911Z,39.31
2022-10-14T16:19:24.843Z,39.44
2022-10-14T16:21:52.741Z,39.32
2022-10-14T16:24:22.047Z,39.32
2022-10-14T16:26:50.850Z,39.33
2022-10-14T16:29:19.120Z,39.13
2022-10-14T16:31:49.294Z,39.34
2022-10-14T16:34:19.039Z,39.36
2022-10-14T16:36:47.371Z,39.42
2022-10-14T16:39:15.322Z,39.40
2022-10-14T16:41:43.241Z,39.62
2022-10-14T16:44:24.903Z,39.53
2022-10-14T16:47:10.708Z,39.57
2022-10-14T16:49:40.467Z,39.62
2022-10-14T16:52:08.608Z,39.58
2022-10-14T16:54:36.475Z,39.62
2022-10-14T16:57:04.759Z,39.52
2022-10-14T16:59:32.649Z,39.44
2022-10-14T17:02:00.672Z,39.64
2022-10-14T17:04:28.662Z,39.94
2022-10-14T17:06:58.227Z,39.43
2022-10-14T17:09:26.226Z,39.65
2022-10-14T17:11:54.709Z,39.62
2022-10-14T17:14:24.211Z,39.65
2022-10-14T17:16:52.717Z,39.46
2022-10-14T17:19:20.667Z,39.43
2022-10-14T17:21:49.008Z,39.67
2022-10-14T17:24:18.359Z,39.36
2022-10-14T17:26:49.400Z,39.70
2022-10-14T17:29:21.616Z,39.54
2022-10-14T17:31:49.654Z,39.73
2022-10-14T17:34:17.580Z,39.92
2022-10-14T17:36:45.908Z,39.72
2022-10-14T17:39:20.134Z,39.59
2022-10-14T17:41:55.273Z,39.90
2022-10-14T17:44:24.422Z,40.03
2022-10-14T17:46:53.238Z,39.80
2022-10-14T17:49:21.934Z,39.70
2022-10-14T17:51:49.806Z,39.80
2022-10-14T17:54:18.086Z,39.92
2022-10-14T17:56:46.247Z,40.01
2022-10-14T17:59:15.463Z,40.14
2022-10-14T18:02:02.692Z,39.67
2022-10-14T18:04:34.242Z,40.12
2022-10-14T18:07:04.930Z,40.21
2022-10-14T18:09:33.928Z,40.10
2022-10-14T18:12:10.021Z,40.20
2022-10-14T18:14:40.773Z,40.23
2022-10-14T18:17:10.702Z,40.12
2022-10-14T18:19:39.046Z,40.21
2022-10-14T18:22:07.480Z,40.18
2022-10-14T18:24:38.416Z,39.76
2022-10-14T18:27:07.902Z,40.21
2022-10-14T18:29:35.811Z,40.18
2022-10-14T18:32:05.133Z,40.10
2022-10-14T18:34:33.055Z,39.84
2022-10-14T18:37:02.280Z,40.27
2022-10-14T18:39:30.216Z,40.14
2022-10-14T18:41:58.079Z,40.33
2022-10-14T18:44:25.915Z,40.18
2022-10-14T18:46:54.025Z,40.13
2022-10-14T18:49:23.286Z,40.44
2022-10-14T18:51:52.018Z,40.42
2022-10-14T18:54:20.709Z,40.41
2022-10-14T18:56:48.982Z,40.62
2022-10-14T18:59:18.149Z,40.04
2022-10-14T19:01:46.483Z,40.38
2022-10-14T19:04:15.148Z,40.28
2022-10-14T19:06:48.864Z,40.44
2022-10-14T19:09:17.004Z,40.28
2022-10-14T19:11:47.823Z,40.22
2022-10-14T19:14:15.709Z,40.43
2022-10-14T19:16:44.477Z,40.39
2022-10-14T19:19:16.621Z,40.44
2022-10-14T19:21:45.918Z,40.92
2022-10-14T19:24:14.541Z,40.24
2022-10-14T19:26:44.106Z,40.57
2022-10-14T19:29:12.785Z,40.41
2022-10-14T19:31:40.731Z,40.42
2022-10-14T19:34:09.500Z,40.50
2022-10-14T19:36:39.692Z,40.62
2022-10-14T19:39:10.207Z,40.55
2022-10-14T19:41:43.085Z,40.45
2022-10-14T19:44:11.510Z,40.70
2022-10-14T19:46:39.548Z,40.57
2022-10-14T19:49:07.466Z,40.79
2022-10-14T19:51:35.688Z,40.51
2022-10-14T19:54:03.601Z,40.70
2022-10-14T19:56:33.188Z,40.82
2022-10-14T19:59:01.816Z,40.96
2022-10-14T20:01:31.015Z,40.84
2022-10-14T20:04:00.318Z,41.05
2022-10-14T20:06:31.258Z,40.79
2022-10-14T20:08:59.131Z,40.91
2022-10-14T20:11:26.995Z,40.65
2022-10-14T20:13:56.281Z,40.99
2022-10-14T20:16:24.475Z,40.85
2022-10-14T20:18:52.386Z,40.67
2022-10-14T20:21:20.322Z,40.85
2022-10-14T20:23:48.256Z,41.03
2022-10-14T20:26:17.393Z,40.86
2022-10-14T20:28:45.405Z,40.91
2022-10-14T20:31:15.879Z,41.09
2022-10-14T20:33:43.775Z,41.13
2022-10-14T20:36:13.541Z,41.09
2022-10-14T20:38:41.736Z,41.03
2022-10-14T20:41:11.840Z,40.95
2022-10-14T20:43:40.298Z,41.22
2022-10-14T20:46:08.504Z,40.87
2022-10-14T20:48:38.424Z,41.25
2022-10-14T20:51:06.702Z,41.14
2022-10-14T20:53:34.654Z,41.14
2022-10-14T20:56:04.037Z,41.20
2022-10-14T20:58:31.912Z,41.15
2022-10-14T21:01:07.604Z,40.82
2022-10-14T21:03:36.872Z,41.06
2022-10-14T21:06:05.674Z,40.96
2022-10-14T21:08:33.552Z,41.19
2022-10-14T21:11:01.711Z,41.00
2022-10-14T21:13:29.565Z,41.02
2022-10-14T21:15:57.800Z,41.12
2022-10-14T21:18:25.669Z,41.22
2022-10-14T21:20:54.953Z,41.02
2022-10-14T21:23:22.813Z,41.05
2022-10-14T21:25:55.412Z,40.97
2022-10-14T21:28:23.402Z,41.05
2022-10-14T21:30:51.342Z,41.04
2022-10-14T21:33:19.206Z,40.79
2022-10-14T21:35:47.382Z,40.85
2022-10-14T21:38:16.637Z,40.92
2022-10-14T21:40:44.588Z,40.98
2022-10-14T21:43:12.499Z,40.81
2022-10-14T21:45:40.687Z,41.07
2022-10-14T21:48:08.595Z,41.06
2022-10-14T21:50:36.491Z,41.08
2022-10-14T21:53:04.371Z,40.96
2022-10-14T21:55:33.960Z,40.92
2022-10-14T21:58:01.871Z,41.16
2022-10-14T22:00:29.729Z,40.90
2022-10-14T22:02:57.675Z,40.94
2022-10-14T22:05:25.833Z,41.24
2022-10-14T22:07:53.706Z,40.77
2022-10-14T22:10:40.973Z,41.19
2022-10-14T22:13:10.438Z,40.99
2022-10-14T22:15:42.174Z,40.93
2022-10-14T22:18:10.326Z,40.97
2022-10-14T22:20:38.243Z,40.95
2022-10-14T22:23:06.139Z,41.03
2022-10-14T22:25:35.642Z,41.07
2022-10-14T22:28:03.663Z,40.75
2022-10-14T22:30:33.090Z,40.99
2022-10-14T22:33:01.036Z,41.02
2022-10-14T22:35:29.242Z,41.09
2022-10-14T22:37:57.136Z,40.75
2022-10-14T22:40:25.011Z,41.20
2022-10-14T22:42:52.911Z,41.16
2022-10-14T22:45:21.179Z,40.99
2022-10-14T22:47:50.581Z,41.08
2022-10-14T22:50:18.634Z,41.18
2022-10-14T22:52:46.533Z,41.43
2022-10-14T22:55:14.712Z,41.27
2022-10-14T22:57:42.573Z,40.89
2022-10-14T23:00:14.610Z,41.18
2022-10-14T23:02:42.575Z,41.22
2022-10-14T23:05:12.168Z,41.36
2022-10-14T23:07:41.009Z,41.22
2022-10-14T23:10:09.519Z,41.28
2022-10-14T23:12:37.358Z,40.78
2022-10-14T23:15:08.204Z,40.90
2022-10-14T23:17:36.050Z,41.31
2022-10-14T23:20:04.115Z,41.02
2022-10-14T23:22:35.705Z,41.16
2022-10-14T23:25:03.589Z,40.96
2022-10-14T23:27:34.176Z,40.91
2022-10-14T23:30:04.322Z,40.96
2022-10-14T23:32:32.198Z,41.23
2022-10-14T23:35:00.065Z,40.89
2022-10-14T23:37:28.312Z,41.04
2022-10-14T23:39:57.595Z,40.74
2022-10-14T23:42:25.445Z,41.25
2022-10-14T23:44:53.338Z,41.37
2022-10-14T23:47:21.838Z,40.75
2022-10-14T23:49:49.843Z,41.04
2022-10-14T23:52:17.828Z,40.75
2022-10-14T23:54:45.779Z,41.25
2022-10-14T23:57:15.526Z,41.09
2022-10-14T23:59:43.455Z,41.13
